Time;durP1;ratioP1;P1;durP2;ratioP2;P2;SDS_P1;SDS_P2;PMS_P1;PMS_P2;Temp;Humidity;BMP_temperature;BMP_pressure;BME280_temperature;BME280_humidity;BME280_pressure;Samples;Min_cycle;Max_cycle;Signal;HPM_P1;HPM_P2
2023/04/27 00:00:49;;;;;;;;;;;22.20;53.40;;;;;;4817254;55;20310;-31
2023/04/27 00:05:50;;;;;;;;;;;22.20;53.50;;;;;;4746747;58;20361;-32
2023/04/27 00:10:51;;;;;;;;;;;22.20;53.50;;;;;;4790343;55;20112;-31
2023/04/27 00:15:51;;;;;;;;;;;22.20;53.50;;;;;;4860894;55;20072;-27
2023/04/27 00:20:52;;;;;;;;;;;22.20;53.50;;;;;;4850909;55;20112;-31
2023/04/27 00:25:53;;;;;;;;;;;22.20;53.40;;;;;;4853485;55;20108;-28
2023/04/27 00:30:53;;;;;;;;;;;22.20;53.40;;;;;;4760452;55;20060;-32
2023/04/27 00:35:58;;;;;;;;;;;22.20;53.40;;;;;;4745770;58;20065;-27
2023/04/27 00:41:02;;;;;;;;;;;22.20;53.40;;;;;;4797682;55;20056;-28
2023/04/27 00:46:02;;;;;;;;;;;22.20;53.30;;;;;;4759096;55;20136;-31
2023/04/27 00:51:04;;;;;;;;;;;22.20;54.00;;;;;;4779867;55;20143;-29
2023/04/27 00:56:05;;;;;;;;;;;22.20;53.30;;;;;;4767718;55;20104;-27
2023/04/27 01:01:06;;;;;;;;;;;22.20;53.40;;;;;;4751692;55;20125;-28
2023/04/27 01:06:07;;;;;;;;;;;22.20;53.30;;;;;;4750588;55;20069;-29
2023/04/27 01:11:07;;;;;;;;;;;22.20;53.30;;;;;;4753033;55;20081;-32
2023/04/27 01:16:08;;;;;;;;;;;22.20;53.30;;;;;;4860907;55;20359;-29
2023/04/27 01:21:09;;;;;;;;;;;22.20;53.20;;;;;;4777773;55;20085;-28
2023/04/27 01:26:12;;;;;;;;;;;22.10;53.20;;;;;;4746368;58;20127;-27
2023/04/27 01:31:13;;;;;;;;;;;22.20;53.20;;;;;;4745661;58;20052;-31
2023/04/27 01:36:14;;;;;;;;;;;22.20;53.20;;;;;;4746583;58;20291;-31
2023/04/27 01:41:15;;;;;;;;;;;22.10;53.10;;;;;;4745937;58;20087;-30
2023/04/27 01:46:15;;;;;;;;;;;22.10;53.10;;;;;;4830592;55;20342;-33
2023/04/27 01:51:16;;;;;;;;;;;22.10;53.10;;;;;;4746414;58;20104;-29
2023/04/27 01:56:17;;;;;;;;;;;22.10;53.10;;;;;;4918347;55;20112;-34
2023/04/27 02:01:17;;;;;;;;;;;22.10;53.00;;;;;;4834487;55;20076;-29
2023/04/27 02:06:18;;;;;;;;;;;22.10;53.00;;;;;;4756025;55;20129;-28
2023/04/27 02:11:19;;;;;;;;;;;22.10;53.00;;;;;;4746191;55;20084;-29
2023/04/27 02:16:19;;;;;;;;;;;22.10;53.00;;;;;;4762928;55;20689;-28
2023/04/27 02:21:20;;;;;;;;;;;22.10;53.00;;;;;;4769167;55;20064;-29
2023/04/27 02:26:22;;;;;;;;;;;22.10;53.60;;;;;;4747243;55;20299;-32
2023/04/27 02:31:23;;;;;;;;;;;22.10;52.90;;;;;;4758934;55;20071;-32
2023/04/27 02:36:23;;;;;;;;;;;22.10;52.90;;;;;;4759109;55;20115;-26
2023/04/27 02:41:26;;;;;;;;;;;22.10;52.90;;;;;;4746247;58;20117;-28
2023/04/27 02:46:27;;;;;;;;;;;22.10;52.80;;;;;;4755288;55;20299;-27
2023/04/27 02:51:28;;;;;;;;;;;22.10;52.70;;;;;;4802944;55;20076;-29
2023/04/27 02:56:28;;;;;;;;;;;22.10;52.90;;;;;;4833319;55;20322;-29
2023/04/27 03:01:30;;;;;;;;;;;22.10;52.70;;;;;;4784786;55;20144;-27
2023/04/27 03:06:30;;;;;;;;;;;22.10;52.70;;;;;;4746498;58;20433;-32
2023/04/27 03:11:31;;;;;;;;;;;22.10;52.70;;;;;;4759166;55;20084;-28
2023/04/27 03:16:32;;;;;;;;;;;22.10;52.60;;;;;;4764624;55;20298;-31
2023/04/27 03:21:33;;;;;;;;;;;22.10;52.60;;;;;;4807107;55;20076;-29
2023/04/27 03:26:33;;;;;;;;;;;22.10;52.60;;;;;;4773756;55;20310;-30
2023/04/27 03:31:34;;;;;;;;;;;22.10;52.60;;;;;;4762677;55;20128;-30
2023/04/27 03:36:35;;;;;;;;;;;22.10;52.60;;;;;;4767731;55;20176;-30
2023/04/27 03:41:35;;;;;;;;;;;22.10;52.50;;;;;;4746563;58;20251;-31
2023/04/27 03:46:36;;;;;;;;;;;22.10;52.50;;;;;;4938490;55;20116;-29
2023/04/27 03:51:41;;;;;;;;;;;22.10;52.50;;;;;;4746614;58;20449;-29
2023/04/27 03:56:43;;;;;;;;;;;22.10;52.50;;;;;;4746471;56;20394;-31
2023/04/27 04:01:43;;;;;;;;;;;22.10;52.40;;;;;;4788239;55;20295;-28
2023/04/27 04:06:45;;;;;;;;;;;22.00;52.30;;;;;;4746349;58;20116;-30
2023/04/27 04:11:46;;;;;;;;;;;22.10;52.30;;;;;;4746391;58;20124;-32
2023/04/27 04:16:47;;;;;;;;;;;22.00;52.30;;;;;;4754400;55;20298;-25
2023/04/27 04:21:47;;;;;;;;;;;22.10;52.30;;;;;;4812439;55;20080;-31
2023/04/27 04:26:48;;;;;;;;;;;22.00;52.30;;;;;;4871842;55;20084;-31
2023/04/27 04:31:48;;;;;;;;;;;22.00;52.40;;;;;;4746658;58;20153;-31
2023/04/27 04:36:55;;;;;;;;;;;22.10;52.50;;;;;;4840836;55;20088;-33
2023/04/27 04:41:56;;;;;;;;;;;22.00;52.60;;;;;;4804957;55;20104;-26
2023/04/27 04:46:57;;;;;;;;;;;22.00;52.50;;;;;;4796573;55;20310;-28
2023/04/27 04:51:57;;;;;;;;;;;22.00;52.40;;;;;;4772407;55;20112;-28
2023/04/27 04:56:59;;;;;;;;;;;22.00;52.30;;;;;;4784500;55;20318;-30
2023/04/27 05:02:00;;;;;;;;;;;22.00;52.30;;;;;;4880279;55;20068;-28
2023/04/27 05:07:01;;;;;;;;;;;22.00;52.20;;;;;;4746587;58;20072;-32
2023/04/27 05:12:02;;;;;;;;;;;22.00;52.10;;;;;;4749981;55;20347;-32
2023/04/27 05:17:03;;;;;;;;;;;22.00;52.10;;;;;;4746607;58;20164;-29
2023/04/27 05:22:04;;;;;;;;;;;22.00;52.00;;;;;;4746415;58;20157;-29
2023/04/27 05:27:04;;;;;;;;;;;22.00;52.00;;;;;;4746462;58;20083;-29
2023/04/27 05:32:05;;;;;;;;;;;22.00;52.10;;;;;;4858566;55;20294;-29
2023/04/27 05:37:06;;;;;;;;;;;22.00;52.00;;;;;;4771481;55;20303;-28
2023/04/27 05:42:06;;;;;;;;;;;22.00;52.00;;;;;;4772155;55;20298;-27
2023/04/27 05:47:07;;;;;;;;;;;22.00;51.90;;;;;;4774838;55;20132;-31
2023/04/27 05:52:07;;;;;;;;;;;22.00;51.90;;;;;;4767127;55;20339;-28
2023/04/27 05:57:08;;;;;;;;;;;22.00;51.90;;;;;;4746208;58;20124;-28
2023/04/27 06:02:09;;;;;;;;;;;22.00;51.80;;;;;;4760920;55;20151;-27
2023/04/27 06:07:11;;;;;;;;;;;22.00;51.80;;;;;;4746151;56;20159;-28
2023/04/27 06:12:11;;;;;;;;;;;22.00;51.80;;;;;;4746542;58;20315;-31
2023/04/27 06:17:12;;;;;;;;;;;22.00;51.70;;;;;;4761042;55;20125;-28
2023/04/27 06:22:13;;;;;;;;;;;22.00;51.70;;;;;;4747533;55;20609;-30
2023/04/27 06:27:13;;;;;;;;;;;22.00;51.60;;;;;;4744555;55;20084;-30
2023/04/27 06:32:14;;;;;;;;;;;22.00;51.70;;;;;;4749111;55;20116;-28
2023/04/27 06:37:16;;;;;;;;;;;22.00;51.60;;;;;;4788801;55;20112;-28
2023/04/27 06:42:16;;;;;;;;;;;22.00;52.30;;;;;;4762344;55;20338;-27
2023/04/27 06:47:17;;;;;;;;;;;22.00;51.60;;;;;;4762336;55;20076;-28
2023/04/27 06:52:18;;;;;;;;;;;22.00;52.20;;;;;;4744002;58;20181;-27
2023/04/27 06:57:18;;;;;;;;;;;22.00;51.50;;;;;;4869263;55;20669;-30
2023/04/27 07:02:19;;;;;;;;;;;22.00;51.60;;;;;;4746568;58;20116;-27
2023/04/27 07:07:19;;;;;;;;;;;22.00;51.60;;;;;;4751740;55;20069;-26
2023/04/27 07:12:20;;;;;;;;;;;22.00;51.20;;;;;;4744828;55;20304;-26
2023/04/27 07:17:21;;;;;;;;;;;22.00;51.50;;;;;;4755743;55;20068;-28
2023/04/27 07:22:21;;;;;;;;;;;22.00;51.50;;;;;;4744591;58;20109;-32
2023/04/27 07:27:25;;;;;;;;;;;22.00;52.30;;;;;;4760204;55;20343;-29
2023/04/27 07:32:26;;;;;;;;;;;22.00;51.50;;;;;;4767014;55;20065;-27
2023/04/27 07:37:27;;;;;;;;;;;22.00;51.50;;;;;;4756489;55;20108;-28
2023/04/27 07:42:28;;;;;;;;;;;22.10;51.70;;;;;;4745264;55;21004;-26
2023/04/27 07:47:28;;;;;;;;;;;22.10;52.50;;;;;;4761610;55;20157;-24
2023/04/27 07:52:32;;;;;;;;;;;22.20;52.70;;;;;;4750393;55;20068;-27
2023/04/27 07:57:33;;;;;;;;;;;22.20;53.20;;;;;;4765270;55;20072;-27
2023/04/27 08:02:33;;;;;;;;;;;22.20;52.80;;;;;;4766455;55;20372;-26
2023/04/27 08:07:34;;;;;;;;;;;22.20;52.80;;;;;;4743937;58;20307;-26
2023/04/27 08:12:35;;;;;;;;;;;22.20;52.70;;;;;;4769571;55;20105;-27
2023/04/27 08:17:39;;;;;;;;;;;22.20;52.70;;;;;;4745843;56;20056;-29
2023/04/27 08:22:40;;;;;;;;;;;22.20;52.70;;;;;;4745374;58;20899;-27
2023/04/27 08:27:41;;;;;;;;;;;22.20;52.60;;;;;;4789851;55;20072;-26
2023/04/27 08:32:42;;;;;;;;;;;22.20;52.60;;;;;;4745312;58;20315;-25
2023/04/27 08:37:45;;;;;;;;;;;22.30;52.60;;;;;;4745808;56;20108;-24
2023/04/27 08:42:53;;;;;;;;;;;22.20;53.20;;;;;;4880769;55;20136;-28
2023/04/27 08:47:54;;;;;;;;;;;22.30;52.60;;;;;;4744935;58;20120;-26
2023/04/27 08:52:55;;;;;;;;;;;22.30;52.60;;;;;;4774358;55;20369;-33
2023/04/27 08:57:56;;;;;;;;;;;22.30;52.60;;;;;;4776470;55;20124;-29
2023/04/27 09:02:57;;;;;;;;;;;22.30;52.70;;;;;;4745821;55;20073;-25
2023/04/27 09:08:05;;;;;;;;;;;22.30;52.40;;;;;;4744893;56;20383;-29
2023/04/27 09:13:06;;;;;;;;;;;22.30;52.70;;;;;;4765583;55;20131;-26
2023/04/27 09:18:11;;;;;;;;;;;22.30;52.60;;;;;;4761661;55;20088;-22
2023/04/27 09:23:25;;;;;;;;;;;22.30;52.60;;;;;;4745040;55;20314;-28
2023/04/27 09:28:29;;;;;;;;;;;22.30;52.50;;;;;;4744730;58;20343;-27
2023/04/27 09:33:31;;;;;;;;;;;22.30;52.50;;;;;;4744977;58;20259;-29
2023/04/27 09:38:32;;;;;;;;;;;22.30;52.50;;;;;;4826732;55;20205;-27
2023/04/27 09:43:33;;;;;;;;;;;22.30;52.50;;;;;;4787862;55;20125;-28
2023/04/27 09:48:35;;;;;;;;;;;22.30;52.50;;;;;;4745108;55;20166;-29
2023/04/27 09:53:56;;;;;;;;;;;22.30;52.50;;;;;;4747987;55;20382;-27
2023/04/27 09:59:15;;;;;;;;;;;22.30;52.50;;;;;;4746028;58;20112;-29
2023/04/27 10:07:48;;;;;;;;;;;22.30;52.50;;;;;;4753598;55;20339;-33
2023/04/27 10:12:55;;;;;;;;;;;22.30;52.50;;;;;;4768452;55;20385;-28
2023/04/27 10:18:02;;;;;;;;;;;22.30;52.60;;;;;;4754229;55;20084;-32
2023/04/27 10:23:02;;;;;;;;;;;22.30;52.70;;;;;;4744401;55;20072;-31
2023/04/27 10:28:03;;;;;;;;;;;22.30;52.60;;;;;;4745263;55;20062;-28
2023/04/27 10:33:08;;;;;;;;;;;22.40;52.70;;;;;;4750768;55;20096;-29
2023/04/27 10:38:10;;;;;;;;;;;22.30;52.60;;;;;;4743940;58;20083;-29
2023/04/27 10:43:15;;;;;;;;;;;22.30;52.60;;;;;;4766502;55;20122;-32
2023/04/27 10:48:15;;;;;;;;;;;22.40;52.70;;;;;;4751279;55;20076;-27
2023/04/27 10:53:16;;;;;;;;;;;22.40;52.50;;;;;;4755975;55;20084;-26
2023/04/27 10:58:21;;;;;;;;;;;22.40;52.70;;;;;;4788063;55;20092;-27
2023/04/27 11:03:22;;;;;;;;;;;22.40;52.80;;;;;;4743771;55;20959;-27
2023/04/27 11:08:23;;;;;;;;;;;22.50;53.00;;;;;;4743888;58;20120;-30
2023/04/27 11:13:25;;;;;;;;;;;22.50;53.30;;;;;;4754518;55;20183;-29
2023/04/27 11:18:27;;;;;;;;;;;22.50;54.00;;;;;;4780193;55;20076;-32
2023/04/27 11:23:35;;;;;;;;;;;22.50;53.50;;;;;;4744081;58;20052;-32
2023/04/27 11:28:36;;;;;;;;;;;22.60;53.60;;;;;;4817314;55;20310;-34
2023/04/27 11:33:38;;;;;;;;;;;22.50;53.60;;;;;;4765847;55;20076;-28
2023/04/27 11:38:41;;;;;;;;;;;22.60;53.70;;;;;;4768235;55;20335;-30
2023/04/27 11:43:45;;;;;;;;;;;22.60;53.70;;;;;;4772702;55;20409;-32
2023/04/27 11:48:45;;;;;;;;;;;22.60;53.90;;;;;;4790509;55;20362;-25
2023/04/27 11:53:47;;;;;;;;;;;22.60;53.90;;;;;;4767105;55;20172;-34
2023/04/27 11:58:47;;;;;;;;;;;22.60;54.00;;;;;;4760748;55;20311;-29
2023/04/27 12:03:51;;;;;;;;;;;22.60;54.10;;;;;;4748170;55;20084;-25
2023/04/27 12:08:52;;;;;;;;;;;22.70;54.10;;;;;;4784288;55;20168;-25
2023/04/27 12:13:53;;;;;;;;;;;22.70;54.30;;;;;;4772886;55;20076;-25
2023/04/27 12:18:54;;;;;;;;;;;22.70;54.30;;;;;;4744114;58;20111;-27
2023/04/27 12:23:54;;;;;;;;;;;22.70;54.40;;;;;;4754117;55;20076;-28
2023/04/27 12:28:55;;;;;;;;;;;22.70;54.80;;;;;;4746423;55;20160;-27
2023/04/27 12:33:56;;;;;;;;;;;22.70;55.20;;;;;;4743661;55;20065;-26
2023/04/27 12:38:58;;;;;;;;;;;22.70;55.50;;;;;;4759524;55;20124;-26
2023/04/27 12:43:58;;;;;;;;;;;22.70;55.90;;;;;;4744968;58;20279;-25
2023/04/27 12:49:00;;;;;;;;;;;22.70;56.00;;;;;;4800346;55;20135;-27
2023/04/27 12:54:02;;;;;;;;;;;22.70;56.10;;;;;;4743959;58;20310;-27
2023/04/27 12:59:04;;;;;;;;;;;22.70;56.20;;;;;;4745955;55;20087;-27
2023/04/27 13:04:05;;;;;;;;;;;22.70;56.20;;;;;;4744698;55;20095;-29
2023/04/27 13:09:06;;;;;;;;;;;22.70;56.80;;;;;;4744404;58;20112;-30
2023/04/27 13:14:07;;;;;;;;;;;22.70;56.20;;;;;;4754070;55;20077;-33
2023/04/27 13:19:07;;;;;;;;;;;22.70;56.20;;;;;;4776786;55;20085;-30
2023/04/27 13:24:08;;;;;;;;;;;22.70;56.20;;;;;;4788900;55;20073;-30
2023/04/27 13:29:09;;;;;;;;;;;22.70;56.10;;;;;;4760795;55;20307;-28
2023/04/27 13:34:09;;;;;;;;;;;22.70;56.10;;;;;;4743879;58;20300;-28
2023/04/27 13:39:10;;;;;;;;;;;22.70;56.10;;;;;;4746062;55;20084;-29
2023/04/27 13:44:11;;;;;;;;;;;22.70;55.70;;;;;;4743774;58;20080;-27
2023/04/27 13:49:11;;;;;;;;;;;22.50;41.40;;;;;;4744020;58;20742;-26
2023/04/27 13:54:12;;;;;;;;;;;22.50;41.10;;;;;;4743870;58;20793;-24
2023/04/27 13:59:14;;;;;;;;;;;22.40;39.40;;;;;;4760139;55;20113;-27
2023/04/27 14:04:15;;;;;;;;;;;22.40;42.00;;;;;;4760223;55;20847;-28
2023/04/27 14:09:16;;;;;;;;;;;22.40;39.60;;;;;;4793457;55;20333;-23
2023/04/27 14:14:16;;;;;;;;;;;22.40;40.30;;;;;;4814607;55;20374;-31
2023/04/27 14:19:19;;;;;;;;;;;22.40;41.20;;;;;;4768794;55;20103;-32
2023/04/27 14:24:19;;;;;;;;;;;22.40;41.40;;;;;;4787368;55;20413;-27
2023/04/27 14:29:20;;;;;;;;;;;22.30;41.90;;;;;;4756705;55;20100;-28
2023/04/27 14:34:21;;;;;;;;;;;22.30;42.50;;;;;;4765181;55;20430;-29
2023/04/27 14:39:22;;;;;;;;;;;22.30;42.60;;;;;;4746290;55;20140;-30
2023/04/27 14:44:22;;;;;;;;;;;22.30;43.10;;;;;;4824039;55;20109;-27
2023/04/27 14:49:40;;;;;;;;;;;22.30;43.30;;;;;;4763960;55;20165;-32
2023/04/27 14:54:47;;;;;;;;;;;22.30;43.60;;;;;;4747699;55;20152;-36
2023/04/27 14:59:57;;;;;;;;;;;22.30;43.80;;;;;;4748557;55;20512;-36
2023/04/27 15:04:58;;;;;;;;;;;22.30;44.10;;;;;;4763527;55;20095;-30
2023/04/27 15:34:56;;;;;;;;;;;22.20;44.40;;;;;;4745790;58;20327;-29
2023/04/27 15:39:57;;;;;;;;;;;22.20;45.40;;;;;;4853659;55;20068;-29
2023/04/27 15:44:59;;;;;;;;;;;22.20;45.50;;;;;;4806499;55;20107;-29
2023/04/27 15:50:00;;;;;;;;;;;22.20;45.60;;;;;;4758112;55;20319;-29
2023/04/27 15:55:00;;;;;;;;;;;22.20;45.70;;;;;;4745764;58;20314;-28
2023/04/27 16:00:01;;;;;;;;;;;22.20;45.80;;;;;;4757242;55;20052;-28
2023/04/27 16:05:02;;;;;;;;;;;22.20;46.10;;;;;;4794143;55;20101;-28
2023/04/27 16:10:03;;;;;;;;;;;22.20;46.00;;;;;;4791543;55;20064;-28
2023/04/27 16:15:03;;;;;;;;;;;22.20;46.20;;;;;;4827855;55;20108;-28
2023/04/27 16:20:05;;;;;;;;;;;22.20;46.20;;;;;;4746755;58;20084;-31
2023/04/27 16:25:09;;;;;;;;;;;22.20;46.30;;;;;;4746762;58;20355;-27
2023/04/27 16:30:10;;;;;;;;;;;22.20;46.50;;;;;;4904423;54;20354;-29
2023/04/27 16:35:10;;;;;;;;;;;22.20;46.60;;;;;;4782338;55;20061;-29
2023/04/27 16:40:11;;;;;;;;;;;22.20;46.70;;;;;;4899945;55;20152;-32
2023/04/27 16:45:12;;;;;;;;;;;22.20;47.40;;;;;;4746317;58;20072;-28
2023/04/27 16:50:13;;;;;;;;;;;22.20;46.90;;;;;;4750432;55;20311;-32
2023/04/27 16:55:13;;;;;;;;;;;22.20;47.00;;;;;;4784548;55;20164;-30
2023/04/27 17:00:14;;;;;;;;;;;22.20;47.10;;;;;;4746230;55;20060;-30
2023/04/27 17:05:15;;;;;;;;;;;22.20;47.10;;;;;;4745740;55;20068;-32
2023/04/27 17:10:17;;;;;;;;;;;22.20;47.20;;;;;;4745651;58;20299;-32
2023/04/27 17:15:18;;;;;;;;;;;22.20;47.30;;;;;;4817643;55;20312;-28
2023/04/27 17:20:19;;;;;;;;;;;22.20;47.40;;;;;;4754804;55;20116;-22
2023/04/27 17:25:19;;;;;;;;;;;22.20;47.50;;;;;;4798591;55;20083;-29
2023/04/27 17:30:20;;;;;;;;;;;22.20;47.60;;;;;;4787007;55;20068;-30
2023/04/27 17:35:21;;;;;;;;;;;22.20;47.60;;;;;;4785581;55;20338;-30
2023/04/27 17:40:21;;;;;;;;;;;22.20;47.70;;;;;;4771960;55;20140;-32
2023/04/27 17:45:23;;;;;;;;;;;22.20;47.70;;;;;;4746713;58;20314;-27
2023/04/27 17:50:24;;;;;;;;;;;22.20;47.80;;;;;;4820652;55;20310;-31
2023/04/27 17:55:25;;;;;;;;;;;22.20;47.90;;;;;;4745645;58;20173;-29
2023/04/27 18:00:25;;;;;;;;;;;22.20;48.10;;;;;;4762728;55;20080;-31
2023/04/27 18:05:26;;;;;;;;;;;22.20;48.00;;;;;;4764636;55;20692;-29
2023/04/27 18:10:27;;;;;;;;;;;22.20;48.10;;;;;;4763411;55;20167;-29
2023/04/27 18:15:28;;;;;;;;;;;22.20;48.20;;;;;;4753751;55;20318;-30
2023/04/27 18:20:28;;;;;;;;;;;22.20;48.10;;;;;;4765146;55;20327;-31
2023/04/27 18:25:29;;;;;;;;;;;22.20;48.20;;;;;;4751899;55;20056;-30
2023/04/27 18:30:31;;;;;;;;;;;22.20;48.40;;;;;;4745806;55;20294;-23
2023/04/27 18:35:31;;;;;;;;;;;22.20;48.30;;;;;;4765588;55;20108;-29
2023/04/27 18:40:34;;;;;;;;;;;22.20;48.40;;;;;;4875541;55;20303;-30
2023/04/27 18:45:36;;;;;;;;;;;22.20;48.30;;;;;;4754124;55;20425;-29
2023/04/27 18:50:37;;;;;;;;;;;22.20;48.30;;;;;;4746302;58;20331;-28
2023/04/27 18:55:38;;;;;;;;;;;22.20;48.50;;;;;;4810331;55;20425;-28
2023/04/27 19:00:38;;;;;;;;;;;22.20;48.40;;;;;;4778473;55;20920;-28
2023/04/27 19:05:41;;;;;;;;;;;22.20;48.50;;;;;;4776446;55;20156;-29
2023/04/27 19:10:42;;;;;;;;;;;22.20;48.50;;;;;;4787779;55;20378;-28
2023/04/27 19:15:42;;;;;;;;;;;22.20;48.50;;;;;;4746021;55;20107;-29
2023/04/27 19:20:43;;;;;;;;;;;22.20;48.60;;;;;;4793171;55;20508;-31
2023/04/27 19:25:45;;;;;;;;;;;22.20;48.60;;;;;;4799201;55;20048;-29
2023/04/27 19:30:47;;;;;;;;;;;22.20;48.60;;;;;;4745884;58;20369;-27
2023/04/27 19:35:47;;;;;;;;;;;22.20;48.60;;;;;;4756018;55;20076;-28
2023/04/27 19:40:48;;;;;;;;;;;22.20;48.70;;;;;;4821978;55;20692;-29
2023/04/27 19:45:49;;;;;;;;;;;22.20;48.70;;;;;;4746424;58;20148;-28
2023/04/27 19:50:50;;;;;;;;;;;22.20;48.70;;;;;;4746532;58;20970;-29
2023/04/27 19:55:51;;;;;;;;;;;22.20;48.80;;;;;;4838544;55;20064;-31
2023/04/27 20:00:52;;;;;;;;;;;22.10;48.70;;;;;;4746465;58;20065;-26
2023/04/27 20:05:52;;;;;;;;;;;22.20;48.70;;;;;;4817856;55;20124;-28
2023/04/27 20:10:53;;;;;;;;;;;22.10;48.70;;;;;;4756161;55;20087;-29
2023/04/27 20:15:53;;;;;;;;;;;22.10;48.70;;;;;;4770465;55;20344;-30
2023/04/27 20:20:54;;;;;;;;;;;22.10;48.80;;;;;;4746815;58;20063;-30
2023/04/27 20:25:55;;;;;;;;;;;22.10;48.80;;;;;;4794917;55;20104;-29
2023/04/27 20:30:57;;;;;;;;;;;22.10;48.70;;;;;;4745502;58;20072;-28
2023/04/27 20:35:57;;;;;;;;;;;22.10;48.70;;;;;;4822310;55;20073;-27
2023/04/27 20:40:59;;;;;;;;;;;22.10;48.70;;;;;;4767449;55;20335;-28
2023/04/27 20:46:00;;;;;;;;;;;22.10;48.70;;;;;;4746797;58;20330;-30
2023/04/27 20:51:01;;;;;;;;;;;22.10;48.70;;;;;;4746565;58;20117;-28
2023/04/27 20:56:01;;;;;;;;;;;22.10;49.00;;;;;;4745801;55;20076;-25
2023/04/27 21:01:03;;;;;;;;;;;22.10;48.70;;;;;;4807806;55;20113;-26
2023/04/27 21:06:04;;;;;;;;;;;22.10;48.70;;;;;;4841844;55;20108;-30
2023/04/27 21:11:05;;;;;;;;;;;22.10;48.70;;;;;;4746463;58;20088;-27
2023/04/27 21:16:06;;;;;;;;;;;22.10;48.70;;;;;;4770573;55;20161;-27
2023/04/27 21:21:06;;;;;;;;;;;22.10;48.60;;;;;;4748042;55;20092;-25
2023/04/27 21:26:08;;;;;;;;;;;22.10;48.60;;;;;;4769778;55;20128;-30
2023/04/27 21:31:08;;;;;;;;;;;22.10;48.60;;;;;;4758146;55;20067;-26
2023/04/27 21:36:09;;;;;;;;;;;22.10;48.70;;;;;;4851212;55;20117;-28
2023/04/27 21:41:10;;;;;;;;;;;22.10;48.60;;;;;;4818406;55;20310;-28
2023/04/27 21:46:11;;;;;;;;;;;22.10;48.60;;;;;;4834126;55;20322;-30
2023/04/27 21:51:11;;;;;;;;;;;22.10;48.50;;;;;;4919357;55;20053;-27
2023/04/27 21:56:12;;;;;;;;;;;22.10;48.40;;;;;;4825202;55;20057;-28
2023/04/27 22:01:13;;;;;;;;;;;22.10;48.50;;;;;;4834513;55;20319;-33
2023/04/27 22:06:14;;;;;;;;;;;22.00;49.00;;;;;;4829596;55;20073;-28
2023/04/27 22:11:15;;;;;;;;;;;22.10;48.40;;;;;;4875394;55;20307;-29
2023/04/27 22:16:16;;;;;;;;;;;22.00;48.40;;;;;;4745891;58;20112;-31
2023/04/27 22:21:17;;;;;;;;;;;22.00;48.40;;;;;;4826670;55;20327;-29
2023/04/27 22:26:17;;;;;;;;;;;22.10;48.40;;;;;;4796191;55;20072;-32
2023/04/27 22:31:18;;;;;;;;;;;22.10;48.40;;;;;;4746443;58;20443;-32
2023/04/27 22:36:19;;;;;;;;;;;22.00;48.20;;;;;;4745758;58;20124;-29
2023/04/27 22:41:19;;;;;;;;;;;22.00;48.20;;;;;;4748069;55;20338;-28
2023/04/27 22:46:22;;;;;;;;;;;22.00;48.20;;;;;;5032622;55;20108;-28
2023/04/27 22:51:22;;;;;;;;;;;22.10;48.20;;;;;;4862617;55;20307;-28
2023/04/27 22:56:23;;;;;;;;;;;22.00;48.10;;;;;;4819744;55;20076;-27
2023/04/27 23:01:24;;;;;;;;;;;22.00;48.10;;;;;;4746284;58;20128;-28
2023/04/27 23:06:27;;;;;;;;;;;22.00;48.00;;;;;;4868093;55;20686;-28
2023/04/27 23:11:27;;;;;;;;;;;22.00;48.00;;;;;;4759728;55;20383;-28
2023/04/27 23:16:31;;;;;;;;;;;22.00;48.00;;;;;;4745274;58;20358;-26
2023/04/27 23:21:31;;;;;;;;;;;22.00;47.90;;;;;;4783739;55;20064;-27
2023/04/27 23:26:32;;;;;;;;;;;22.00;47.80;;;;;;4746063;58;20151;-28
2023/04/27 23:31:33;;;;;;;;;;;22.00;47.90;;;;;;4752400;55;20113;-32
2023/04/27 23:36:33;;;;;;;;;;;22.00;47.80;;;;;;4745482;58;20056;-28
2023/04/27 23:41:34;;;;;;;;;;;22.00;47.80;;;;;;4749103;55;20121;-23
2023/04/27 23:46:35;;;;;;;;;;;22.00;47.90;;;;;;4746692;58;20311;-28
2023/04/27 23:51:35;;;;;;;;;;;22.00;47.70;;;;;;4754781;55;20319;-29
2023/04/27 23:56:36;;;;;;;;;;;22.00;47.70;;;;;;4754237;55;20290;-27
